Terminal Aerodrome Forecast
Issued by NWS

Home | Current Version | Previous Version | Text Only | Print | Product List | Glossary On
Versions: 1 2 3 4 5 6 7 8 9 10 11 12 13
674
FTUS46 KPDT 281731
TAFPSC
TAF
KPSC 281731Z 2818/2918 23015G22KT P6SM SCT080 OVC100
     FM290300 22008KT P6SM OVC080
     FM290800 20005KT P6SM -RA SCT050 OVC070
     FM291600 21012KT P6SM VCSH SCT045 BKN070=

USA.gov is the U.S. government's official web portal to all federal, state and local government web resources and services.